TAF Text Data
IDs:
Format:
Raw Decoded Include METAR

Data at: 0725 UTC 24 Jan 2019

KPVW 240715Z AUTO 19005KT 10SM CLR M04/M12 A2989 RMK AO2 T10411123

KPVW 240520Z 2406/2506 20005KT P6SM SKC
  FM241400 01015KT P6SM FEW250